Time;durP1;ratioP1;P1;durP2;ratioP2;P2;SDS_P1;SDS_P2;PMS_P1;PMS_P2;Temp;Humidity;BMP_temperature;BMP_pressure;BME280_temperature;BME280_humidity;BME280_pressure;Samples;Min_cycle;Max_cycle;Signal;HPM_P1;HPM_P2
2023/07/06 00:01:29;;;;;;;172.87;9.23;;;;;;;;;;765172;183;815893;-62
2023/07/06 00:03:56;;;;;;;250.43;13.70;;;;;;;;;;765647;183;919227;-61
2023/07/06 00:06:21;;;;;;;64.83;7.07;;;;;;;;;;770979;181;918633;-61
2023/07/06 00:08:46;;;;;;;34.27;4.07;;;;;;;;;;763340;183;919061;-62
2023/07/06 00:11:12;;;;;;;99.20;7.03;;;;;;;;;;763232;183;919834;-61
2023/07/06 00:13:39;;;;;;;67.70;7.63;;;;;;;;;;769126;183;917392;-62
2023/07/06 00:16:04;;;;;;;64.03;7.30;;;;;;;;;;763790;183;919273;-60
2023/07/06 00:18:30;;;;;;;78.77;6.70;;;;;;;;;;763584;183;918229;-62
2023/07/06 00:20:57;;;;;;;45.20;6.57;;;;;;;;;;768965;183;919050;-62
2023/07/06 00:23:23;;;;;;;150.73;10.40;;;;;;;;;;767173;183;919324;-61
2023/07/06 00:25:48;;;;;;;28.40;5.10;;;;;;;;;;766229;183;917417;-62
2023/07/06 00:28:16;;;;;;;56.67;7.20;;;;;;;;;;768519;183;939974;-61
2023/07/06 00:33:26;;;;;;;146.20;10.00;;;;;;;;;;767855;183;919824;-60
2023/07/06 00:35:51;;;;;;;142.77;9.70;;;;;;;;;;764715;183;925263;-65
2023/07/06 00:38:17;;;;;;;43.43;6.50;;;;;;;;;;764616;183;820471;-60
2023/07/06 00:40:43;;;;;;;44.87;7.80;;;;;;;;;;768856;183;920561;-61
2023/07/06 00:43:10;;;;;;;84.37;8.87;;;;;;;;;;762682;183;918980;-61
2023/07/06 00:45:37;;;;;;;69.18;6.22;;;;;;;;;;765410;180;921524;-61
2023/07/06 00:48:02;;;;;;;91.33;6.70;;;;;;;;;;771696;182;918683;-60
2023/07/06 00:50:28;;;;;;;48.23;7.77;;;;;;;;;;767577;182;917896;-61
2023/07/06 00:52:54;;;;;;;82.90;11.20;;;;;;;;;;769079;183;919231;-61
2023/07/06 00:55:20;;;;;;;55.73;7.93;;;;;;;;;;764364;183;932112;-61
2023/07/06 00:57:47;;;;;;;69.10;7.13;;;;;;;;;;771522;183;816305;-60
2023/07/06 01:00:13;;;;;;;56.50;6.43;;;;;;;;;;763905;183;818935;-61
2023/07/06 01:02:39;;;;;;;70.37;8.43;;;;;;;;;;764734;183;910000;-61
2023/07/06 01:05:04;;;;;;;59.37;9.30;;;;;;;;;;769739;183;896079;-62
2023/07/06 01:07:31;;;;;;;61.90;8.50;;;;;;;;;;765122;183;915619;-60
2023/07/06 01:09:57;;;;;;;45.00;6.00;;;;;;;;;;764256;183;919846;-61
2023/07/06 01:12:24;;;;;;;38.20;5.10;;;;;;;;;;767509;183;879125;-61
2023/07/06 01:14:48;;;;;;;42.27;6.90;;;;;;;;;;760383;183;919687;-60
2023/07/06 01:17:23;;;;;;;21.80;7.50;;;;;;;;;;764530;183;918206;-61
2023/07/06 01:19:54;;;;;;;39.73;7.13;;;;;;;;;;760154;183;918983;-60
2023/07/06 01:22:22;;;;;;;36.20;7.23;;;;;;;;;;768095;183;917980;-60
2023/07/06 01:24:51;;;;;;;32.73;8.77;;;;;;;;;;763973;183;917187;-60
2023/07/06 01:27:24;;;;;;;46.37;7.27;;;;;;;;;;762217;183;918554;-61
2023/07/06 01:29:53;;;;;;;27.50;6.30;;;;;;;;;;763033;183;919054;-60
2023/07/06 01:32:21;;;;;;;26.23;7.60;;;;;;;;;;762838;183;943509;-60
2023/07/06 01:34:46;;;;;;;20.63;4.73;;;;;;;;;;768764;183;918374;-61
2023/07/06 01:37:19;;;;;;;26.83;5.67;;;;;;;;;;764744;183;920247;-60
2023/07/06 01:39:45;;;;;;;34.50;5.10;;;;;;;;;;766066;183;920281;-61
2023/07/06 01:42:14;;;;;;;23.90;4.60;;;;;;;;;;765887;183;919143;-61
2023/07/06 01:44:41;;;;;;;23.43;4.83;;;;;;;;;;766723;181;918712;-61
2023/07/06 01:47:07;;;;;;;28.63;5.93;;;;;;;;;;764191;183;918832;-61
2023/07/06 01:49:34;;;;;;;27.93;4.40;;;;;;;;;;763989;183;915924;-61
2023/07/06 01:52:03;;;;;;;20.95;4.47;;;;;;;;;;768786;183;915941;-61
2023/07/06 01:54:27;;;;;;;20.20;5.27;;;;;;;;;;760165;183;827027;-61
2023/07/06 01:56:54;;;;;;;16.60;4.20;;;;;;;;;;765710;182;916681;-61
2023/07/06 01:59:20;;;;;;;17.90;4.20;;;;;;;;;;765649;182;940457;-61
2023/07/06 02:01:45;;;;;;;26.73;7.15;;;;;;;;;;770943;182;918834;-61
2023/07/06 02:04:12;;;;;;;13.90;4.90;;;;;;;;;;766487;183;918836;-62
2023/07/06 02:06:37;;;;;;;24.60;5.30;;;;;;;;;;764937;183;919761;-61
2023/07/06 02:09:04;;;;;;;20.77;4.72;;;;;;;;;;771208;183;920338;-62
2023/07/06 02:11:29;;;;;;;33.00;6.07;;;;;;;;;;767261;183;918596;-62
2023/07/06 02:13:55;;;;;;;13.87;4.30;;;;;;;;;;767781;183;817310;-62
2023/07/06 02:16:20;;;;;;;23.50;5.77;;;;;;;;;;769779;183;864865;-61
2023/07/06 02:18:46;;;;;;;14.73;5.57;;;;;;;;;;760883;183;918168;-62
2023/07/06 02:21:13;;;;;;;15.60;4.67;;;;;;;;;;764116;183;919197;-62
2023/07/06 02:23:38;;;;;;;10.13;4.47;;;;;;;;;;765554;183;919263;-62
2023/07/06 02:26:04;;;;;;;19.13;5.07;;;;;;;;;;774342;180;919321;-62
2023/07/06 02:28:30;;;;;;;14.73;3.97;;;;;;;;;;764671;183;920022;-62
2023/07/06 02:30:57;;;;;;;29.47;4.70;;;;;;;;;;765518;183;920412;-62
2023/07/06 02:33:21;;;;;;;13.47;3.93;;;;;;;;;;769810;183;814275;-63
2023/07/06 02:35:47;;;;;;;19.33;4.23;;;;;;;;;;765707;183;884082;-62
2023/07/06 02:38:14;;;;;;;21.70;5.23;;;;;;;;;;767095;183;916273;-62
2023/07/06 02:40:40;;;;;;;16.53;5.17;;;;;;;;;;768825;183;916367;-62
2023/07/06 02:43:07;;;;;;;33.67;4.50;;;;;;;;;;766411;183;914159;-62
2023/07/06 02:45:31;;;;;;;14.10;4.37;;;;;;;;;;765008;183;918396;-62
2023/07/06 02:47:58;;;;;;;16.30;4.90;;;;;;;;;;764706;183;920316;-62
2023/07/06 02:50:23;;;;;;;25.87;4.83;;;;;;;;;;773030;180;920282;-62
2023/07/06 02:52:49;;;;;;;23.73;5.00;;;;;;;;;;759839;183;871705;-63
2023/07/06 02:55:16;;;;;;;26.20;6.70;;;;;;;;;;765297;183;918444;-62
2023/07/06 02:57:41;;;;;;;17.80;6.23;;;;;;;;;;768410;183;917511;-62
2023/07/06 03:00:12;;;;;;;41.57;5.93;;;;;;;;;;765172;183;862596;-64
2023/07/06 03:02:35;;;;;;;107.37;9.33;;;;;;;;;;762198;183;920339;-62
2023/07/06 03:05:04;;;;;;;161.07;11.33;;;;;;;;;;769877;183;943230;-62
2023/07/06 03:07:27;;;;;;;82.77;8.90;;;;;;;;;;766516;181;866246;-62
2023/07/06 03:09:53;;;;;;;210.97;12.60;;;;;;;;;;765468;182;917167;-62
2023/07/06 03:12:19;;;;;;;235.50;12.50;;;;;;;;;;766667;182;918707;-62
2023/07/06 03:14:46;;;;;;;57.80;7.73;;;;;;;;;;771982;179;919339;-62
2023/07/06 03:17:10;;;;;;;134.00;9.97;;;;;;;;;;763771;183;918466;-63
2023/07/06 03:19:38;;;;;;;109.63;7.87;;;;;;;;;;765411;183;919430;-63
2023/07/06 03:22:02;;;;;;;83.27;7.40;;;;;;;;;;771622;183;918069;-62
2023/07/06 03:24:28;;;;;;;125.37;8.07;;;;;;;;;;762488;183;918607;-63
2023/07/06 03:26:54;;;;;;;66.23;7.50;;;;;;;;;;764335;183;1021494;-63
2023/07/06 03:29:20;;;;;;;47.00;6.50;;;;;;;;;;771988;183;783372;-62
2023/07/06 03:31:46;;;;;;;100.27;9.00;;;;;;;;;;763652;183;918637;-63
2023/07/06 03:34:11;;;;;;;53.83;8.10;;;;;;;;;;765987;183;916056;-63
2023/07/06 03:36:39;;;;;;;73.20;8.75;;;;;;;;;;769873;183;916377;-64
2023/07/06 03:39:04;;;;;;;71.80;7.40;;;;;;;;;;770457;180;916598;-64
2023/07/06 03:41:30;;;;;;;99.70;8.33;;;;;;;;;;764025;183;918497;-63
2023/07/06 03:43:58;;;;;;;92.40;8.43;;;;;;;;;;764924;183;919252;-64
2023/07/06 03:46:23;;;;;;;57.53;7.60;;;;;;;;;;764642;183;919472;-63
2023/07/06 03:48:48;;;;;;;30.70;6.80;;;;;;;;;;765770;183;921291;-64
2023/07/06 03:51:14;;;;;;;21.13;6.37;;;;;;;;;;764647;183;919349;-63
2023/07/06 03:53:39;;;;;;;26.53;6.00;;;;;;;;;;762909;184;918962;-64
2023/07/06 03:56:06;;;;;;;17.83;5.70;;;;;;;;;;752492;183;918299;-63
2023/07/06 03:58:31;;;;;;;10.17;5.60;;;;;;;;;;766515;183;914790;-63
2023/07/06 04:00:58;;;;;;;15.07;6.33;;;;;;;;;;767427;183;921431;-64
2023/07/06 04:03:23;;;;;;;15.40;7.00;;;;;;;;;;760133;183;920020;-63
2023/07/06 04:05:50;;;;;;;18.73;6.17;;;;;;;;;;763975;183;931277;-63
2023/07/06 04:08:15;;;;;;;27.50;6.87;;;;;;;;;;764394;183;919094;-63
2023/07/06 04:10:40;;;;;;;25.10;5.67;;;;;;;;;;767703;183;818821;-63
2023/07/06 04:13:08;;;;;;;20.13;6.43;;;;;;;;;;762645;183;939705;-63
2023/07/06 04:15:32;;;;;;;16.10;7.12;;;;;;;;;;763140;183;920759;-63
2023/07/06 04:17:58;;;;;;;21.90;7.33;;;;;;;;;;771273;183;828148;-63
2023/07/06 04:20:24;;;;;;;17.67;6.37;;;;;;;;;;768689;182;918901;-61
2023/07/06 04:22:51;;;;;;;19.53;5.97;;;;;;;;;;764199;182;919575;-62
2023/07/06 04:25:19;;;;;;;31.43;6.00;;;;;;;;;;771691;182;913085;-62
2023/07/06 04:27:42;;;;;;;9.70;4.87;;;;;;;;;;766665;183;919313;-62
2023/07/06 04:30:09;;;;;;;13.13;5.13;;;;;;;;;;765798;183;918811;-63
2023/07/06 04:32:35;;;;;;;20.20;5.23;;;;;;;;;;765199;183;919747;-63
2023/07/06 04:35:00;;;;;;;30.30;5.63;;;;;;;;;;768609;183;917522;-63
2023/07/06 04:37:26;;;;;;;12.68;5.20;;;;;;;;;;763153;183;859419;-64
2023/07/06 04:39:52;;;;;;;16.77;5.30;;;;;;;;;;764494;183;920432;-64
2023/07/06 04:42:19;;;;;;;11.30;5.83;;;;;;;;;;769863;183;919714;-63
2023/07/06 04:44:45;;;;;;;8.53;4.37;;;;;;;;;;767785;183;919117;-62
2023/07/06 04:47:10;;;;;;;10.40;5.43;;;;;;;;;;767240;183;917133;-63
2023/07/06 04:49:37;;;;;;;8.90;5.07;;;;;;;;;;771304;182;918578;-62
2023/07/06 04:52:02;;;;;;;8.33;5.07;;;;;;;;;;762756;183;919404;-63
2023/07/06 04:54:28;;;;;;;12.17;5.57;;;;;;;;;;764056;183;919618;-63
2023/07/06 04:56:55;;;;;;;6.83;4.23;;;;;;;;;;760351;183;918841;-64
2023/07/06 04:59:19;;;;;;;9.37;4.73;;;;;;;;;;770309;183;919126;-63
2023/07/06 05:01:45;;;;;;;7.67;4.27;;;;;;;;;;764602;183;937822;-64
2023/07/06 05:04:11;;;;;;;10.50;5.07;;;;;;;;;;764551;183;918592;-62
2023/07/06 05:06:37;;;;;;;13.27;5.13;;;;;;;;;;767277;183;842705;-63
2023/07/06 05:09:03;;;;;;;19.10;5.73;;;;;;;;;;764052;183;919770;-63
2023/07/06 05:11:30;;;;;;;8.63;4.80;;;;;;;;;;766906;183;919279;-63
2023/07/06 05:13:56;;;;;;;16.30;6.00;;;;;;;;;;769232;183;918780;-62
2023/07/06 05:16:21;;;;;;;7.97;4.60;;;;;;;;;;765164;183;863237;-64
2023/07/06 05:18:48;;;;;;;15.23;5.37;;;;;;;;;;763830;183;894157;-62
2023/07/06 05:21:14;;;;;;;6.67;4.40;;;;;;;;;;763819;183;918649;-63
2023/07/06 05:23:40;;;;;;;8.60;4.53;;;;;;;;;;767896;183;816089;-62
2023/07/06 05:26:04;;;;;;;9.83;5.43;;;;;;;;;;762604;183;926786;-63
2023/07/06 05:28:31;;;;;;;7.43;5.40;;;;;;;;;;761583;183;918310;-63
2023/07/06 05:30:57;;;;;;;11.48;5.50;;;;;;;;;;768324;181;816974;-62
2023/07/06 05:33:23;;;;;;;11.10;5.60;;;;;;;;;;756547;182;920018;-62
2023/07/06 05:35:48;;;;;;;18.07;5.40;;;;;;;;;;761015;182;919265;-63
2023/07/06 05:38:14;;;;;;;7.70;5.53;;;;;;;;;;771539;183;818793;-63
2023/07/06 05:40:40;;;;;;;13.93;6.50;;;;;;;;;;763442;183;914658;-62
2023/07/06 05:43:06;;;;;;;9.70;5.40;;;;;;;;;;754801;183;916725;-62
2023/07/06 05:45:32;;;;;;;15.00;6.90;;;;;;;;;;765910;182;917301;-63
2023/07/06 05:47:58;;;;;;;10.60;6.67;;;;;;;;;;767469;180;889424;-61
2023/07/06 05:50:23;;;;;;;16.33;5.40;;;;;;;;;;763445;183;913911;-62
2023/07/06 05:52:49;;;;;;;8.37;5.17;;;;;;;;;;765783;183;918206;-63
2023/07/06 05:55:15;;;;;;;7.37;5.30;;;;;;;;;;769522;183;919411;-63
2023/07/06 05:57:41;;;;;;;8.30;5.70;;;;;;;;;;764068;183;918760;-63
2023/07/06 06:00:09;;;;;;;6.73;5.30;;;;;;;;;;764965;183;927687;-64
2023/07/06 06:02:33;;;;;;;7.07;4.97;;;;;;;;;;763996;184;919052;-62
2023/07/06 06:04:59;;;;;;;9.50;5.17;;;;;;;;;;766598;183;919448;-63
2023/07/06 06:07:25;;;;;;;8.20;5.03;;;;;;;;;;763610;183;921141;-62
2023/07/06 06:09:51;;;;;;;11.03;5.20;;;;;;;;;;765524;183;919003;-63
2023/07/06 06:12:19;;;;;;;9.03;4.93;;;;;;;;;;771652;180;816928;-63
2023/07/06 06:14:45;;;;;;;7.43;4.70;;;;;;;;;;762029;182;923100;-66
2023/07/06 06:17:12;;;;;;;15.20;5.40;;;;;;;;;;765289;183;921917;-63
2023/07/06 06:19:38;;;;;;;7.30;4.37;;;;;;;;;;769974;183;842589;-63
2023/07/06 06:22:04;;;;;;;8.53;5.87;;;;;;;;;;760898;183;918601;-64
2023/07/06 06:24:30;;;;;;;23.77;5.67;;;;;;;;;;763059;183;912022;-64
2023/07/06 06:26:55;;;;;;;10.40;5.40;;;;;;;;;;769080;183;919206;-63
2023/07/06 06:29:21;;;;;;;11.13;4.73;;;;;;;;;;762571;183;971231;-63
2023/07/06 06:31:47;;;;;;;8.67;5.17;;;;;;;;;;763661;183;915557;-63
2023/07/06 06:34:13;;;;;;;7.63;4.90;;;;;;;;;;763859;183;818918;-63
2023/07/06 06:36:41;;;;;;;12.80;4.80;;;;;;;;;;771301;182;818003;-64
2023/07/06 06:39:05;;;;;;;6.30;4.70;;;;;;;;;;766802;183;817684;-64
2023/07/06 06:41:31;;;;;;;11.43;5.70;;;;;;;;;;764704;183;731483;-68
2023/07/06 06:43:56;;;;;;;7.60;4.80;;;;;;;;;;772474;181;916179;-63
2023/07/06 06:46:23;;;;;;;6.43;4.63;;;;;;;;;;767089;182;915559;-64
2023/07/06 06:48:48;;;;;;;8.00;4.53;;;;;;;;;;767149;183;880447;-65
2023/07/06 06:51:14;;;;;;;6.70;4.67;;;;;;;;;;770632;183;919032;-65
2023/07/06 06:53:40;;;;;;;7.97;4.50;;;;;;;;;;768543;183;872828;-66
2023/07/06 06:56:07;;;;;;;7.67;4.97;;;;;;;;;;766742;183;912478;-64
2023/07/06 06:58:32;;;;;;;11.73;5.60;;;;;;;;;;762663;183;944439;-66
2023/07/06 07:00:58;;;;;;;8.97;4.63;;;;;;;;;;769757;182;917246;-66
2023/07/06 07:03:27;;;;;;;8.07;4.80;;;;;;;;;;767197;183;816992;-64
2023/07/06 07:06:11;;;;;;;11.40;5.70;;;;;;;;;;763556;183;917682;-65
2023/07/06 07:08:31;;;;;;;8.60;4.90;;;;;;;;;;762384;183;919114;-65
2023/07/06 07:10:57;;;;;;;11.43;5.03;;;;;;;;;;768551;183;919783;-64
2023/07/06 07:13:23;;;;;;;9.33;5.20;;;;;;;;;;762943;183;916633;-65
2023/07/06 07:15:49;;;;;;;9.43;4.83;;;;;;;;;;761947;183;919456;-65
2023/07/06 07:18:15;;;;;;;9.30;5.00;;;;;;;;;;767410;183;918295;-66
2023/07/06 07:20:40;;;;;;;9.50;5.30;;;;;;;;;;766313;183;918218;-64
2023/07/06 07:23:06;;;;;;;7.13;5.13;;;;;;;;;;763319;183;925672;-64
2023/07/06 07:25:32;;;;;;;8.90;6.13;;;;;;;;;;765451;183;917852;-65
2023/07/06 07:27:58;;;;;;;11.43;5.63;;;;;;;;;;763135;183;921826;-64
2023/07/06 07:30:26;;;;;;;12.50;6.47;;;;;;;;;;762945;183;920457;-65
2023/07/06 07:32:50;;;;;;;11.50;6.60;;;;;;;;;;763007;183;918783;-64
2023/07/06 07:35:15;;;;;;;10.37;6.07;;;;;;;;;;771835;183;669245;-65
2023/07/06 07:37:41;;;;;;;9.13;5.80;;;;;;;;;;764036;183;918604;-65
2023/07/06 07:40:07;;;;;;;8.17;5.63;;;;;;;;;;767452;183;709972;-65
2023/07/06 07:42:33;;;;;;;9.50;5.33;;;;;;;;;;769298;183;917581;-68
2023/07/06 07:44:59;;;;;;;11.50;6.13;;;;;;;;;;764679;183;902520;-64
2023/07/06 07:47:27;;;;;;;9.73;5.00;;;;;;;;;;763248;183;942565;-64
2023/07/06 07:49:51;;;;;;;8.73;6.17;;;;;;;;;;768982;183;929176;-64
2023/07/06 07:52:19;;;;;;;8.33;5.40;;;;;;;;;;760648;183;917576;-65
2023/07/06 07:54:43;;;;;;;13.27;5.90;;;;;;;;;;759791;182;940397;-65
2023/07/06 07:57:08;;;;;;;10.80;5.67;;;;;;;;;;764928;182;917102;-65
2023/07/06 07:59:35;;;;;;;10.80;5.77;;;;;;;;;;768557;180;923024;-64
2023/07/06 08:02:00;;;;;;;9.43;5.20;;;;;;;;;;763924;183;811837;-65
2023/07/06 08:04:26;;;;;;;5.90;4.53;;;;;;;;;;763233;183;921020;-65
2023/07/06 08:06:52;;;;;;;6.77;4.97;;;;;;;;;;768725;183;920291;-66
2023/07/06 08:09:18;;;;;;;11.47;5.10;;;;;;;;;;764836;183;917093;-65
2023/07/06 08:11:46;;;;;;;12.67;5.27;;;;;;;;;;761854;183;919089;-66
2023/07/06 08:14:09;;;;;;;11.30;3.70;;;;;;;;;;766713;183;920757;-66
2023/07/06 08:16:35;;;;;;;6.20;4.63;;;;;;;;;;764840;183;916125;-66
2023/07/06 08:19:02;;;;;;;8.13;4.57;;;;;;;;;;765157;183;820797;-65
2023/07/06 08:21:28;;;;;;;7.53;4.53;;;;;;;;;;765429;183;915777;-66
2023/07/06 08:23:54;;;;;;;17.03;5.70;;;;;;;;;;771099;180;908702;-65
2023/07/06 08:26:19;;;;;;;14.70;5.63;;;;;;;;;;764987;183;916607;-65
2023/07/06 08:28:46;;;;;;;10.30;5.33;;;;;;;;;;765819;183;816876;-67
2023/07/06 08:31:12;;;;;;;11.63;4.70;;;;;;;;;;771252;183;815527;-67
2023/07/06 08:33:37;;;;;;;7.20;4.90;;;;;;;;;;766374;183;914845;-66
2023/07/06 08:36:06;;;;;;;10.13;4.97;;;;;;;;;;760809;183;1022364;-67
2023/07/06 08:38:31;;;;;;;9.07;4.93;;;;;;;;;;768347;183;918213;-65
2023/07/06 08:40:57;;;;;;;11.53;4.77;;;;;;;;;;762750;183;916225;-67
2023/07/06 08:43:23;;;;;;;9.83;5.20;;;;;;;;;;768064;183;634291;-66
2023/07/06 08:45:52;;;;;;;10.87;4.83;;;;;;;;;;769215;183;626578;-64
2023/07/06 08:48:15;;;;;;;7.60;4.03;;;;;;;;;;769826;181;617964;-67
2023/07/06 08:50:42;;;;;;;13.27;5.53;;;;;;;;;;766732;183;917454;-67
2023/07/06 08:53:09;;;;;;;7.23;4.47;;;;;;;;;;764075;183;920575;-65
2023/07/06 08:55:33;;;;;;;10.00;5.00;;;;;;;;;;771495;183;754474;-64
2023/07/06 08:58:00;;;;;;;8.70;4.83;;;;;;;;;;763259;183;912366;-64
2023/07/06 09:00:25;;;;;;;7.07;3.80;;;;;;;;;;764661;183;918871;-65
2023/07/06 09:02:50;;;;;;;7.60;3.97;;;;;;;;;;769240;183;918299;-65
2023/07/06 09:05:16;;;;;;;5.40;3.80;;;;;;;;;;765014;181;919263;-66
2023/07/06 09:07:42;;;;;;;15.73;4.07;;;;;;;;;;764940;182;918359;-66
2023/07/06 09:10:11;;;;;;;6.80;4.43;;;;;;;;;;766154;182;919438;-63
2023/07/06 09:12:36;;;;;;;8.60;3.87;;;;;;;;;;772764;180;817963;-66
2023/07/06 09:15:02;;;;;;;8.43;4.60;;;;;;;;;;765712;183;817297;-64
2023/07/06 09:17:28;;;;;;;10.53;4.97;;;;;;;;;;764388;183;854895;-66
2023/07/06 09:19:56;;;;;;;7.57;4.10;;;;;;;;;;770372;183;882372;-64
2023/07/06 09:22:23;;;;;;;6.83;3.93;;;;;;;;;;766643;183;922175;-65
2023/07/06 09:24:51;;;;;;;13.07;4.95;;;;;;;;;;765651;183;919251;-64
2023/07/06 09:27:18;;;;;;;11.20;4.80;;;;;;;;;;764564;183;918166;-64
2023/07/06 09:29:45;;;;;;;14.77;6.10;;;;;;;;;;764052;181;816987;-64
2023/07/06 09:32:14;;;;;;;9.07;5.03;;;;;;;;;;766014;183;921354;-63
2023/07/06 09:34:44;;;;;;;9.47;5.37;;;;;;;;;;765559;183;916411;-65
2023/07/06 09:37:08;;;;;;;13.80;6.63;;;;;;;;;;770099;183;921122;-65
2023/07/06 09:39:34;;;;;;;14.50;5.37;;;;;;;;;;764363;183;819711;-66
2023/07/06 09:42:01;;;;;;;5.77;3.83;;;;;;;;;;765859;183;913380;-66
2023/07/06 09:44:26;;;;;;;9.60;4.90;;;;;;;;;;764568;183;905569;-66
2023/07/06 09:46:51;;;;;;;10.73;6.60;;;;;;;;;;769563;183;838778;-65
2023/07/06 09:49:17;;;;;;;16.40;4.70;;;;;;;;;;765742;183;812329;-65
2023/07/06 09:51:50;;;;;;;12.03;4.70;;;;;;;;;;765316;183;816901;-65
2023/07/06 09:54:14;;;;;;;9.67;4.77;;;;;;;;;;769362;183;842019;-66
2023/07/06 09:56:40;;;;;;;6.70;4.10;;;;;;;;;;767392;183;815424;-66
2023/07/06 09:59:06;;;;;;;10.93;4.55;;;;;;;;;;765532;183;815377;-65
2023/07/06 10:01:33;;;;;;;6.00;4.50;;;;;;;;;;765720;183;821809;-64
2023/07/06 10:04:07;;;;;;;7.33;4.80;;;;;;;;;;770624;180;926195;-66
2023/07/06 10:06:39;;;;;;;8.73;5.13;;;;;;;;;;762989;183;919390;-65
2023/07/06 10:09:04;;;;;;;7.47;4.67;;;;;;;;;;761171;183;910002;-65
2023/07/06 10:11:34;;;;;;;10.80;4.73;;;;;;;;;;761911;183;913151;-65
2023/07/06 10:13:59;;;;;;;7.97;4.87;;;;;;;;;;766544;183;911473;-64
2023/07/06 10:16:42;;;;;;;8.50;5.97;;;;;;;;;;763662;183;877228;-65
2023/07/06 10:19:07;;;;;;;9.70;5.00;;;;;;;;;;769485;182;919179;-65
2023/07/06 10:21:42;;;;;;;11.30;5.63;;;;;;;;;;765292;182;916498;-64
2023/07/06 10:24:25;;;;;;;8.20;5.73;;;;;;;;;;766507;183;917883;-65
2023/07/06 10:26:52;;;;;;;8.13;3.95;;;;;;;;;;763643;183;1020734;-65
2023/07/06 10:29:17;;;;;;;7.30;4.30;;;;;;;;;;769841;183;920429;-65
2023/07/06 10:31:43;;;;;;;8.90;4.23;;;;;;;;;;768229;183;816035;-67
2023/07/06 10:34:09;;;;;;;8.23;4.27;;;;;;;;;;764054;183;1017721;-65
2023/07/06 10:36:35;;;;;;;10.80;4.57;;;;;;;;;;770387;183;913507;-67
2023/07/06 10:39:03;;;;;;;6.27;3.97;;;;;;;;;;763049;183;921356;-66
2023/07/06 10:41:27;;;;;;;5.70;4.28;;;;;;;;;;764313;183;884949;-66
2023/07/06 10:43:55;;;;;;;10.90;6.77;;;;;;;;;;767133;183;1022363;-66
2023/07/06 10:46:25;;;;;;;12.93;5.00;;;;;;;;;;753114;184;924643;-66
2023/07/06 10:48:54;;;;;;;14.07;5.17;;;;;;;;;;754164;185;850947;-66
2023/07/06 10:51:22;;;;;;;8.10;5.13;;;;;;;;;;752891;184;917998;-65
2023/07/06 10:53:48;;;;;;;5.90;4.10;;;;;;;;;;761314;184;919245;-66
2023/07/06 10:56:18;;;;;;;7.93;5.40;;;;;;;;;;759823;184;914770;-65
2023/07/06 10:58:44;;;;;;;9.80;4.43;;;;;;;;;;760076;183;919080;-65
2023/07/06 11:01:10;;;;;;;10.63;7.27;;;;;;;;;;758311;183;918114;-66
2023/07/06 11:03:36;;;;;;;7.57;4.63;;;;;;;;;;749233;186;920051;-65
2023/07/06 11:06:17;;;;;;;7.30;5.70;;;;;;;;;;762419;183;917967;-65
2023/07/06 11:08:51;;;;;;;7.00;5.10;;;;;;;;;;763254;183;920062;-64
2023/07/06 11:11:18;;;;;;;14.53;4.67;;;;;;;;;;765344;183;917586;-66
2023/07/06 11:13:48;;;;;;;12.57;4.80;;;;;;;;;;762829;183;917552;-68
2023/07/06 11:16:14;;;;;;;10.37;4.87;;;;;;;;;;768301;183;916711;-64
2023/07/06 11:18:40;;;;;;;7.20;4.07;;;;;;;;;;756850;183;919282;-65
2023/07/06 11:21:07;;;;;;;6.10;3.33;;;;;;;;;;762490;183;941566;-63
2023/07/06 11:23:34;;;;;;;9.18;4.22;;;;;;;;;;762795;183;919060;-63
2023/07/06 11:25:59;;;;;;;7.17;4.37;;;;;;;;;;768876;181;917436;-65
2023/07/06 11:28:25;;;;;;;6.77;4.53;;;;;;;;;;762686;182;919362;-64
2023/07/06 11:30:51;;;;;;;6.80;4.00;;;;;;;;;;765419;182;829386;-66
2023/07/06 11:33:18;;;;;;;7.33;5.27;;;;;;;;;;772293;182;752120;-63
2023/07/06 11:35:55;;;;;;;14.27;4.63;;;;;;;;;;770174;183;641533;-64
2023/07/06 11:38:20;;;;;;;9.17;4.77;;;;;;;;;;766869;183;919254;-63
2023/07/06 11:40:49;;;;;;;7.03;4.97;;;;;;;;;;764725;183;919547;-64
2023/07/06 11:43:15;;;;;;;7.00;4.90;;;;;;;;;;769335;183;862543;-66
2023/07/06 11:45:43;;;;;;;9.13;3.90;;;;;;;;;;755823;183;920061;-62
2023/07/06 11:48:10;;;;;;;9.37;4.33;;;;;;;;;;766606;183;804963;-63
2023/07/06 11:50:35;;;;;;;7.15;4.55;;;;;;;;;;765858;183;853577;-64
2023/07/06 11:55:39;;;;;;;9.27;5.00;;;;;;;;;;766533;183;841244;-66
2023/07/06 11:58:07;;;;;;;10.37;4.83;;;;;;;;;;764623;183;817082;-66
2023/07/06 12:00:48;;;;;;;8.47;5.13;;;;;;;;;;765914;183;827121;-63
2023/07/06 12:03:03;;;;;;;7.47;5.23;;;;;;;;;;762317;182;919677;-66
2023/07/06 12:05:29;;;;;;;10.70;5.70;;;;;;;;;;761760;183;918863;-64
2023/07/06 12:07:56;;;;;;;8.67;5.20;;;;;;;;;;763152;183;890520;-61
2023/07/06 12:10:22;;;;;;;8.10;5.17;;;;;;;;;;766634;183;919186;-66
2023/07/06 12:12:48;;;;;;;6.43;4.20;;;;;;;;;;764266;183;839554;-62
2023/07/06 12:15:13;;;;;;;10.47;5.37;;;;;;;;;;766230;183;914820;-60
2023/07/06 12:17:39;;;;;;;7.00;4.83;;;;;;;;;;764420;183;916658;-61
2023/07/06 12:20:08;;;;;;;11.60;4.87;;;;;;;;;;768645;183;919275;-61
2023/07/06 12:22:33;;;;;;;7.40;4.17;;;;;;;;;;759783;183;918937;-67
2023/07/06 12:24:57;;;;;;;8.77;5.17;;;;;;;;;;763839;183;922539;-66
2023/07/06 12:27:23;;;;;;;7.20;4.30;;;;;;;;;;766900;183;909955;-65
2023/07/06 12:29:49;;;;;;;7.27;4.53;;;;;;;;;;764726;183;919024;-64
2023/07/06 12:32:16;;;;;;;6.80;4.73;;;;;;;;;;768674;183;618616;-62
2023/07/06 12:34:43;;;;;;;11.93;4.50;;;;;;;;;;769295;183;915456;-66
2023/07/06 12:37:08;;;;;;;10.90;4.83;;;;;;;;;;765506;183;920464;-65
2023/07/06 12:39:34;;;;;;;8.93;4.93;;;;;;;;;;767757;183;826404;-64
2023/07/06 12:42:00;;;;;;;10.70;5.80;;;;;;;;;;763593;182;919624;-61
2023/07/06 12:44:27;;;;;;;8.87;5.33;;;;;;;;;;766278;182;919866;-63
2023/07/06 12:46:51;;;;;;;8.23;5.20;;;;;;;;;;766272;183;930796;-60
2023/07/06 12:49:22;;;;;;;8.10;4.70;;;;;;;;;;768136;183;816618;-63
2023/07/06 12:51:48;;;;;;;8.50;5.17;;;;;;;;;;770994;183;914620;-60
2023/07/06 12:54:14;;;;;;;7.83;5.20;;;;;;;;;;768140;183;817563;-60
2023/07/06 12:56:39;;;;;;;8.20;5.10;;;;;;;;;;766822;183;919946;-60
2023/07/06 12:59:06;;;;;;;6.25;4.45;;;;;;;;;;766719;183;919424;-60
2023/07/06 13:01:32;;;;;;;7.13;4.50;;;;;;;;;;769391;179;913773;-61
2023/07/06 13:04:03;;;;;;;7.93;4.87;;;;;;;;;;762770;183;883480;-62
2023/07/06 13:06:29;;;;;;;9.93;5.00;;;;;;;;;;765378;183;919063;-63
2023/07/06 13:08:55;;;;;;;9.20;5.50;;;;;;;;;;770063;183;919010;-63
2023/07/06 13:11:21;;;;;;;6.70;4.70;;;;;;;;;;765000;183;918519;-63
2023/07/06 13:13:47;;;;;;;8.20;4.90;;;;;;;;;;762491;183;919438;-63
2023/07/06 13:16:13;;;;;;;8.20;4.63;;;;;;;;;;768092;183;921882;-64
2023/07/06 13:18:39;;;;;;;12.73;5.77;;;;;;;;;;767254;181;919259;-63
2023/07/06 13:21:06;;;;;;;8.07;4.70;;;;;;;;;;762692;183;919014;-59
2023/07/06 13:23:30;;;;;;;6.53;4.80;;;;;;;;;;763368;183;919309;-62
2023/07/06 13:25:56;;;;;;;11.47;5.30;;;;;;;;;;767444;183;919256;-59
2023/07/06 13:28:23;;;;;;;7.90;4.67;;;;;;;;;;766578;183;919689;-59
2023/07/06 13:30:48;;;;;;;7.03;5.10;;;;;;;;;;765696;183;919111;-58
2023/07/06 13:33:16;;;;;;;7.23;4.40;;;;;;;;;;769808;183;816196;-62
2023/07/06 13:35:40;;;;;;;8.50;4.73;;;;;;;;;;766530;183;814936;-60
2023/07/06 13:38:06;;;;;;;8.63;5.80;;;;;;;;;;765328;183;882430;-62
2023/07/06 13:40:32;;;;;;;6.63;4.83;;;;;;;;;;768999;183;913590;-63
2023/07/06 13:42:59;;;;;;;7.43;4.63;;;;;;;;;;763459;183;897879;-59
2023/07/06 13:45:23;;;;;;;7.00;4.23;;;;;;;;;;763211;183;944229;-59
2023/07/06 13:47:49;;;;;;;6.53;4.20;;;;;;;;;;761915;183;919303;-62
2023/07/06 13:50:15;;;;;;;6.10;4.47;;;;;;;;;;770748;183;815331;-62
2023/07/06 13:52:41;;;;;;;9.27;5.07;;;;;;;;;;766543;181;938721;-59
2023/07/06 13:55:09;;;;;;;8.90;4.87;;;;;;;;;;766094;182;919183;-63
2023/07/06 13:57:35;;;;;;;8.63;4.83;;;;;;;;;;769746;182;920385;-62
2023/07/06 14:00:01;;;;;;;6.37;4.50;;;;;;;;;;765733;183;921092;-62
2023/07/06 14:02:27;;;;;;;6.47;4.53;;;;;;;;;;764160;183;919141;-62
2023/07/06 14:04:52;;;;;;;7.90;4.20;;;;;;;;;;772018;183;632878;-62
2023/07/06 14:07:18;;;;;;;11.30;5.90;;;;;;;;;;769230;183;716105;-59
2023/07/06 14:09:44;;;;;;;13.53;5.07;;;;;;;;;;767240;183;641697;-62
2023/07/06 14:12:10;;;;;;;8.17;4.73;;;;;;;;;;767882;183;620311;-59
2023/07/06 14:14:36;;;;;;;8.03;4.80;;;;;;;;;;771895;183;623591;-60
2023/07/06 14:17:03;;;;;;;9.33;5.47;;;;;;;;;;770039;183;626027;-61
2023/07/06 14:19:27;;;;;;;14.43;5.60;;;;;;;;;;765556;183;901313;-59
2023/07/06 14:21:53;;;;;;;7.83;4.97;;;;;;;;;;768227;183;918273;-58